Latest Weather Observations for Ballina

IDN60801

Issued at 5:33 pm EST Thursday 25 August 2016 (issued every 30 minutes, with the page automatically refreshed every 10 minutes)

About weather observations | Map of weather stations | Latest weather observations for NSW | Other Formats
Station Details ID: 058198 Name: BALLINA AIRPORT AWS Lat: -28.84 Lon: 153.56 Height: 1.3 m
Data from the previous 72 hours. | See also: Recent months at Ballina
Date/Time
EST
Temp
°C
App
Temp
°C
Dew
Point
°C
Rel
Hum
%
Delta-T
°C
Wind Press
QNH
hPa
Press
MSL
hPa
Rain since
9am
mm
Dir  Spd
km/h
Gust
km/h
Spd
kts
Gust
kts
25/05:30pm 16.2 13.3 6.6 53 4.7 WNW 11 17 6 9 1011.9 1011.9 0.0
25/05:00pm 17.7 13.4 5.3 44 6.0 WNW 17 24 9 13 1011.4 1011.4 0.0
25/04:30pm 18.6 14.1 6.1 44 6.2 W 19 28 10 15 1010.9 1010.9 0.0
25/04:00pm 19.2 14.6 6.3 43 6.4 W 20 26 11 14 1010.5 1010.5 0.0
25/03:30pm 19.3 14.6 6.1 42 6.5 WNW 20 30 11 16 1010.2 1010.2 0.0
25/03:00pm 19.6 13.7 7.4 45 6.2 W 28 39 15 21 1009.7 1009.7 0.0
25/02:30pm 19.5 13.2 7.3 45 6.2 WSW 30 39 16 21 1009.4 1009.4 0.0
25/02:00pm 19.0 12.1 6.5 44 6.2 W 32 41 17 22 1009.1 1009.1 0.0
25/01:30pm 18.8 11.8 6.9 46 6.0 W 33 48 18 26 1009.0 1009.0 0.0
25/01:22pm 19.0 12.6 6.8 45 6.1 W 30 48 16 26 1009.1 1009.1 0.0
25/01:00pm 18.6 11.2 6.8 46 5.9 W 35 46 19 25 1009.1 1009.1 0.0
25/12:30pm 18.2 11.3 7.3 49 5.5 W 33 50 18 27 1009.3 1009.3 0.0
25/12:07pm 18.1 9.7 7.2 49 5.5 W 41 61 22 33 1009.3 1009.3 0.0
25/12:00pm 18.1 9.8 7.8 51 5.2 W 41 56 22 30 1009.4 1009.4 0.0
25/11:30am 17.8 10.1 7.0 49 5.4 W 37 48 20 26 1009.9 1009.9 0.0
25/11:00am 17.4 10.2 7.5 52 5.0 W 35 46 19 25 1010.1 1010.1 0.0
25/10:30am 16.8 8.7 7.2 53 4.8 W 39 50 21 27 1010.2 1010.2 0.0
25/10:00am 16.5 8.8 7.2 54 4.6 W 37 48 20 26 1010.5 1010.5 0.0
25/09:30am 16.3 9.9 8.5 60 4.0 W 32 48 17 26 1010.3 1010.3 0.0
25/09:00am 15.8 9.3 8.1 60 3.9 W 32 44 17 24 1010.2 1010.2 14.6
25/08:30am 15.5 9.9 8.7 64 3.5 W 28 41 15 22 1009.9 1009.9 14.6
25/08:00am 15.1 11.7 9.2 68 3.0 WNW 17 24 9 13 1010.1 1010.1 14.6
25/07:30am 13.3 10.3 9.2 76 2.1 NW 15 19 8 10 1010.1 1010.1 14.6
25/07:00am 11.7 11.5 10.4 92 0.7 NNW 2 7 1 4 1009.4 1009.4 14.6
25/06:30am 12.5 11.1 10.9 90 0.8 NNW 9 13 5 7 1008.8 1008.8 14.6
25/06:00am 12.8 11.7 10.0 83 1.4 WNW 6 9 3 5 1008.5 1008.5 14.6
25/05:30am 14.3 12.5 9.5 73 2.5 WNW 9 15 5 8 1008.1 1008.1 14.6
25/05:00am 14.4 11.4 9.4 72 2.6 NW 15 20 8 11 1008.0 1008.0 14.6
25/04:30am 14.7 11.8 9.5 71 2.7 W 15 20 8 11 1006.2 1006.2 14.6
25/04:00am 15.7 11.0 9.4 66 3.3 WNW 24 35 13 19 1007.5 1007.5 14.6
25/03:30am 16.0 12.0 10.5 70 2.9 WNW 22 33 12 18 1007.3 1007.3 14.6
25/03:00am 15.7 12.6 11.7 77 2.2 W 19 32 10 17 1005.6 1005.6 14.6
25/02:30am 15.5 14.1 13.5 88 1.1 WNW 13 19 7 10 1005.2 1005.2 14.6
25/02:00am 15.7 14.2 14.2 91 0.9 NW 15 22 8 12 1005.8 1005.8 14.6
25/01:30am 15.0 14.7 14.5 97 0.3 NW 9 15 5 8 1006.3 1006.3 14.6
25/01:00am 14.2 15.4 13.9 98 0.2 CALM 0 0 0 0 1006.5 1006.5 14.6
25/12:30am 14.6 14.3 14.4 99 0.1 N 9 11 5 6 1006.5 1006.5 14.6
25/12:00am 13.8 13.2 13.6 99 0.1 W 9 11 5 6 1006.4 1006.4 14.6
 
Date/Time
EST
Temp
°C
App
Temp
°C
Dew
Point
°C
Rel
Hum
%
Delta-T
°C
Wind Press
QNH
hPa
Press
MSL
hPa
Rain since
9am
mm
Dir  Spd
km/h
Gust
km/h
Spd
kts
Gust
kts
24/11:34pm 13.7 14.4 13.5 99 0.1 NW 2 7 1 4 1005.3 1005.3 14.6
24/11:30pm 13.7 14.4 13.5 99 0.1 NNW 2 7 1 4 1005.1 1005.1 14.6
24/11:00pm 13.6 14.7 13.4 99 0.1 CALM 0 0 0 0 1006.0 1006.0 14.6
24/10:59pm 13.7 14.8 13.5 99 0.1 CALM 0 0 0 0 1006.0 1006.0 14.6
24/10:53pm 13.8 14.9 13.6 99 0.1 CALM 0 0 0 0 1005.9 1005.9 14.6
24/10:32pm 13.7 14.8 13.5 99 0.1 CALM 0 6 0 3 1006.1 1006.1 14.6
24/10:30pm 13.7 14.8 13.4 98 0.2 CALM 0 0 0 0 1006.3 1006.3 14.6
24/10:00pm 13.9 15.0 13.6 98 0.2 CALM 0 0 0 0 1006.9 1006.9 14.6
24/09:30pm 14.6 14.9 14.4 99 0.1 NNW 6 7 3 4 1007.1 1007.1 14.6
24/09:00pm 14.5 14.5 14.2 98 0.2 NNW 7 11 4 6 1007.2 1007.2 14.6
24/08:30pm 14.6 14.8 14.1 97 0.3 W 6 7 3 4 1006.7 1006.7 14.6
24/08:00pm 15.2 14.6 14.7 97 0.3 NW 11 13 6 7 1008.1 1008.1 14.6
24/07:48pm 15.3 16.5 14.8 97 0.3 NW 2 7 1 4 1008.1 1008.1 14.6
24/07:30pm 15.3 16.1 14.8 97 0.3 W 4 9 2 5 1008.0 1008.0 14.6
24/07:22pm 15.3 16.1 14.8 97 0.3 W 4 7 2 4 1007.4 1007.4 14.6
24/07:09pm 15.3 15.7 14.8 97 0.3 WNW 6 11 3 6 1007.1 1007.1 14.6
24/07:00pm 15.4 15.3 14.9 97 0.3 WNW 9 13 5 7 1007.7 1007.7 14.6
24/06:30pm 15.4 15.4 15.1 98 0.2 WNW 9 13 5 7 1007.4 1007.4 14.6
24/06:00pm 15.3 15.7 14.8 97 0.3 WNW 6 9 3 5 1006.3 1006.3 14.6
24/05:30pm 15.5 15.1 15.2 98 0.2 W 11 15 6 8 1007.2 1007.2 14.0
24/05:05pm 15.7 15.8 15.4 98 0.2 WNW 9 22 5 12 1006.9 1006.9 14.0
24/05:00pm 15.5 14.7 15.0 97 0.3 NW 13 22 7 12 1006.5 1006.5 14.0
24/04:30pm 15.7 16.1 15.2 97 0.3 NW 7 11 4 6 1006.8 1006.8 14.0
24/04:00pm 15.5 15.0 15.0 97 0.3 NW 11 17 6 9 1007.1 1007.1 13.6
24/03:30pm 15.5 15.9 15.2 98 0.2 SW 7 11 4 6 1007.0 1007.0 13.2
24/03:23pm 15.5 15.1 15.2 98 0.2 WSW 11 15 6 8 1007.0 1007.0 12.8
24/03:00pm 15.5 14.4 15.2 98 0.2 WSW 15 19 8 10 1007.2 1007.2 12.4
24/02:30pm 15.5 13.3 15.0 97 0.3 WSW 20 26 11 14 1007.7 1007.7 10.8
24/02:19pm 15.8 14.0 15.5 98 0.2 WSW 19 26 10 14 1007.7 1007.7 10.2
24/02:00pm 16.0 14.1 15.7 98 0.2 SW 20 30 11 16 1007.6 1007.6 9.6
24/01:48pm 16.5 16.5 16.2 98 0.2 SSW 11 17 6 9 1007.4 1007.4 8.4
24/01:30pm 16.5 15.3 16.0 97 0.3 S 17 24 9 13 1007.5 1007.5 7.6
24/01:13pm 16.6 15.4 16.0 96 0.4 S 17 20 9 11 1007.3 1007.3 6.6
24/01:00pm 16.7 15.4 15.9 95 0.5 S 17 22 9 12 1007.5 1007.5 6.0
24/12:52pm 16.7 15.4 15.9 95 0.5 SSE 17 24 9 13 1007.4 1007.4 6.0
24/12:30pm 16.4 15.8 15.6 95 0.5 S 13 19 7 10 1007.8 1007.8 5.2
24/12:25pm 16.5 15.8 15.4 93 0.6 S 13 20 7 11 1007.9 1007.9 5.0
24/12:00pm 16.7 14.9 15.6 93 0.6 S 19 24 10 13 1008.1 1008.1 4.4
24/11:59am 16.7 15.3 15.6 93 0.6 S 17 24 9 13 1008.1 1008.1 4.4
24/11:31am 16.5 14.3 15.0 91 0.9 S 20 35 11 19 1008.5 1008.5 3.8
24/11:30am 16.5 13.9 15.0 91 0.9 S 22 35 12 19 1008.6 1008.6 3.8
24/11:00am 16.6 14.5 15.3 92 0.8 S 20 30 11 16 1008.6 1008.6 3.4
24/10:49am 16.5 13.6 15.2 92 0.8 S 24 37 13 20 1008.7 1008.7 3.2
24/10:35am 16.3 13.1 15.2 93 0.6 S 26 37 14 20 1009.1 1009.1 3.2
24/10:30am 16.1 11.6 14.8 92 0.7 S 32 44 17 24 1009.3 1009.3 3.0
24/10:29am 16.2 11.6 14.7 91 0.9 S 32 50 17 27 1009.3 1009.3 2.8
24/10:17am 16.7 12.4 15.4 92 0.8 SSE 32 50 17 27 1009.3 1009.3 2.2
24/10:05am 16.8 13.5 16.0 95 0.5 S 28 41 15 22 1009.3 1009.3 2.0
24/10:00am 16.9 13.2 16.1 95 0.5 S 30 43 16 23 1009.5 1009.5 1.8
24/09:46am 16.7 13.4 16.1 96 0.4 S 28 46 15 25 1009.8 1009.8 1.6
24/09:35am 16.5 14.7 15.5 94 0.6 SW 19 32 10 17 1010.1 1010.1 1.0
24/09:30am 16.7 15.7 15.6 93 0.6 SW 15 28 8 15 1010.5 1010.5 0.6
24/09:07am 16.7 13.5 15.2 91 0.9 S 26 35 14 19 1010.0 1010.0 0.2
24/09:00am 16.7 13.7 14.9 89 1.0 S 24 35 13 19 1010.1 1010.1 33.6
24/08:30am 16.4 14.0 15.3 93 0.6 SSW 22 30 12 16 1010.4 1010.4 33.6
24/08:12am 16.2 13.7 15.2 94 0.6 S 22 32 12 17 1010.9 1010.9 33.2
24/08:05am 16.1 14.0 15.3 95 0.5 SSW 20 32 11 17 1010.7 1010.7 33.2
24/08:00am 16.1 13.7 15.3 95 0.5 SSW 22 37 12 20 1010.5 1010.5 33.0
24/07:55am 16.4 13.7 15.6 95 0.5 SSW 24 37 13 20 1010.5 1010.5 33.0
24/07:49am 16.5 13.4 15.7 95 0.5 S 26 37 14 20 1010.6 1010.6 32.6
24/07:43am 16.5 12.4 16.0 97 0.3 SSE 32 50 17 27 1010.3 1010.3 32.4
24/07:33am 16.7 12.7 16.2 97 0.3 SSE 32 46 17 25 1009.6 1009.6 32.0
24/07:30am 16.8 13.2 16.2 96 0.4 SSE 30 46 16 25 1009.6 1009.6 32.0
24/07:12am 16.8 14.1 16.6 99 0.1 S 26 43 14 23 1009.4 1009.4 31.6
24/07:00am 16.6 14.2 16.4 99 0.1 S 24 35 13 19 1009.7 1009.7 31.4
24/06:30am 16.3 12.6 16.1 99 0.1 S 30 44 16 24 1009.5 1009.5 30.4
24/06:20am 16.3 13.0 16.1 99 0.1 S 28 50 15 27 1009.6 1009.6 29.8
24/06:02am 16.8 14.1 16.6 99 0.1 SSW 26 35 14 19 1009.4 1009.4 28.8
24/06:00am 16.6 13.4 16.4 99 0.1 SSW 28 37 15 20 1009.5 1009.5 28.8
24/05:56am 16.5 13.3 16.3 99 0.1 S 28 39 15 21 1009.6 1009.6 28.6
24/05:30am 16.6 13.8 16.4 99 0.1 S 26 39 14 21 1009.7 1009.7 27.8
24/05:00am 16.3 15.1 16.1 99 0.1 WSW 17 22 9 12 1010.1 1010.1 25.8
24/04:30am 16.6 15.5 16.4 99 0.1 S 17 22 9 12 1009.6 1009.6 23.4
24/04:00am 16.6 15.9 16.4 99 0.1 S 15 20 8 11 1009.3 1009.3 21.8
24/03:30am 16.4 16.4 16.2 99 0.1 SSW 11 15 6 8 1009.5 1009.5 20.6
24/03:00am 16.4 16.8 16.2 99 0.1 SSW 9 13 5 7 1010.0 1010.0 18.8
24/02:38am 16.0 15.5 15.8 99 0.1 WSW 13 19 7 10 1010.0 1010.0 17.2
24/02:30am 15.8 15.2 15.6 99 0.1 WSW 13 19 7 10 1010.0 1010.0 17.0
24/02:00am 15.5 15.1 15.3 99 0.1 SW 11 17 6 9 1010.8 1010.8 16.2
24/01:30am 15.2 13.9 14.9 98 0.2 SW 15 17 8 9 1011.4 1011.4 11.4
24/01:00am 15.9 15.8 14.9 94 0.6 SW 9 17 5 9 1012.1 1012.1 7.2
24/12:54am 16.1 16.5 15.3 95 0.5 S 7 11 4 6 1012.1 1012.1 7.0
24/12:30am 16.1 15.7 15.1 94 0.6 SW 11 17 6 9 1011.7 1011.7 5.6
24/12:00am 16.3 16.0 15.5 95 0.5 WSW 11 15 6 8 1011.8 1011.8 5.2
 
Date/Time
EST
Temp
°C
App
Temp
°C
Dew
Point
°C
Rel
Hum
%
Delta-T
°C
Wind Press
QNH
hPa
Press
MSL
hPa
Rain since
9am
mm
Dir  Spd
km/h
Gust
km/h
Spd
kts
Gust
kts
23/11:30pm 16.5 15.8 15.5 94 0.6 SW 13 17 7 9 1012.6 1012.6 4.8
23/11:00pm 17.0 16.5 15.9 93 0.6 WSW 13 19 7 10 1013.2 1013.2 4.6
23/10:30pm 16.9 17.0 15.6 92 0.8 S 9 11 5 6 1013.4 1013.4 4.6
23/10:28pm 17.0 17.2 15.7 92 0.8 SSW 9 11 5 6 1013.3 1013.3 4.6
23/10:00pm 17.6 18.0 16.3 92 0.8 N 9 15 5 8 1013.9 1013.9 3.2
23/09:48pm 17.9 18.6 17.1 95 0.5 NNW 9 13 5 7 1014.0 1014.0 2.2
23/09:30pm 18.0 19.3 17.2 95 0.5 NW 6 11 3 6 1014.0 1014.0 1.6
23/09:00pm 18.4 19.6 17.4 94 0.6 NW 7 9 4 5 1014.0 1014.0 1.2
23/08:30pm 18.4 19.5 17.2 93 0.7 NNW 7 9 4 5 1013.9 1013.9 0.8
23/08:00pm 18.7 19.5 17.2 91 0.9 N 9 13 5 7 1013.7 1013.7 0.8
23/07:30pm 18.8 19.1 17.1 90 1.0 NNE 11 13 6 7 1013.6 1013.6 0.4
23/07:00pm 19.3 20.6 17.1 87 1.3 NNE 6 7 3 4 1013.7 1013.7 0.2
23/06:30pm 19.5 20.3 16.3 82 1.9 NE 7 11 4 6 1013.3 1013.3 0.0
23/06:00pm 20.0 20.4 16.2 79 2.3 NNE 9 11 5 6 1013.1 1013.1 0.0
23/05:30pm 19.8 20.7 16.6 82 1.9 NNE 7 9 4 5 1012.8 1012.8 0.0
23/05:00pm 20.7 21.3 16.7 78 2.4 NE 9 11 5 6 1012.5 1012.5 0.0
23/04:30pm 21.4 22.7 17.0 76 2.7 NE 6 11 3 6 1012.1 1012.1 0.0
23/04:00pm 21.7 22.2 16.6 73 3.1 E 9 11 5 6 1012.1 1012.1 0.0
23/03:30pm 22.1 22.8 17.0 73 3.1 ESE 9 11 5 6 1011.9 1011.9 0.0
23/03:00pm 22.1 21.4 16.4 70 3.5 ENE 15 19 8 10 1011.9 1011.9 0.0
23/02:30pm 22.4 21.8 15.7 66 4.0 E 13 19 7 10 1011.8 1011.8 0.0
23/02:00pm 23.3 24.2 15.1 60 4.9 WSW 4 11 2 6 1011.8 1011.8 0.0
23/01:30pm 23.3 23.6 15.9 63 4.5 W 9 15 5 8 1011.9 1011.9 0.0
23/01:00pm 22.2 20.8 15.5 66 4.0 WSW 17 24 9 13 1012.5 1012.5 0.0
23/12:30pm 23.5 22.3 15.0 59 5.1 NW 15 19 8 10 1012.6 1012.6 0.0
23/12:00pm 23.9 23.4 15.9 61 4.8 NW 13 19 7 10 1013.3 1013.3 0.0
23/11:30am 22.3 22.8 15.6 66 4.0 NNW 7 13 4 7 1013.7 1013.7 0.0
23/11:00am 21.9 22.1 15.7 68 3.7 NNW 9 11 5 6 1014.2 1014.2 0.0
23/10:30am 21.9 21.9 15.3 66 3.9 NNW 9 15 5 8 1014.0 1014.0 0.0
23/10:00am 21.7 21.5 15.8 69 3.5 NNW 11 19 6 10 1014.3 1014.3 0.0
23/09:30am 20.8 21.5 16.2 75 2.8 N 7 11 4 6 1014.3 1014.3 0.0
23/09:00am 20.4 20.6 15.8 75 2.7 N 9 15 5 8 1013.8 1013.8 5.2
23/08:30am 19.8 20.2 16.3 80 2.1 N 9 15 5 8 1013.5 1013.5 5.2
23/08:00am 18.2 20.2 16.9 92 0.8 NNW 2 6 1 3 1013.6 1013.6 5.2
23/07:30am 17.5 19.2 17.2 98 0.2 NNE 4 6 2 3 1013.8 1013.8 5.2
23/07:00am 15.7 17.5 15.5 99 0.1 CALM 0 7 0 4 1013.8 1013.8 5.2
23/06:30am 14.9 15.3 14.7 99 0.1 NE 6 9 3 5 1013.6 1013.6 5.2
23/06:16am 14.7 16.1 14.4 98 0.2 CALM 0 0 0 0 1013.6 1013.6 5.2
23/06:00am 14.8 16.2 14.5 98 0.2 CALM 0 0 0 0 1013.5 1013.5 5.2
23/05:52am 15.0 16.5 14.7 98 0.2 CALM 0 0 0 0 1013.5 1013.5 5.2
23/05:30am 15.4 17.1 15.1 98 0.2 CALM 0 0 0 0 1013.5 1013.5 5.2
23/05:16am 15.2 16.8 14.9 98 0.2 CALM 0 0 0 0 1013.3 1013.3 5.2
23/05:00am 15.0 16.5 14.7 98 0.2 CALM 0 0 0 0 1013.4 1013.4 5.2
23/04:46am 14.7 16.0 14.2 97 0.3 CALM 0 0 0 0 1013.1 1013.1 5.2
23/04:30am 15.6 16.6 15.3 98 0.2 N 4 9 2 5 1013.0 1013.0 5.2
23/04:00am 15.7 15.8 15.4 98 0.2 NNW 9 11 5 6 1013.1 1013.1 5.2
23/03:30am 15.9 16.0 15.6 98 0.2 N 9 11 5 6 1013.4 1013.4 5.2
23/03:01am 15.7 16.3 15.2 97 0.3 N 6 7 3 4 1013.6 1013.6 5.2
23/03:00am 15.7 16.3 15.2 97 0.3 N 6 7 3 4 1013.6 1013.6 5.2
23/02:30am 15.8 16.2 15.2 96 0.3 WNW 7 9 4 5 1014.5 1014.5 4.0
23/02:29am 15.8 16.2 15.2 96 0.3 WNW 7 9 4 5 1014.6 1014.6 4.0
23/02:17am 15.8 16.3 15.0 95 0.5 WSW 6 7 3 4 1014.5 1014.5 3.4
23/02:00am 16.0 16.3 15.0 94 0.6 WSW 7 9 4 5 1014.7 1014.7 2.8
23/01:45am 16.2 15.3 14.9 92 0.7 WSW 13 19 7 10 1014.9 1014.9 1.4
23/01:30am 16.7 14.7 14.9 89 1.0 SW 19 24 10 13 1015.0 1015.0 0.6
23/01:00am 18.2 18.7 15.5 84 1.6 N 7 11 4 6 1014.7 1014.7 0.2
23/12:30am 19.3 18.1 15.0 76 2.5 NNW 15 20 8 11 1014.7 1014.7 0.0
23/12:00am 19.5 17.3 15.0 75 2.6 N 20 30 11 16 1014.5 1014.5 0.0
 
Date/Time
EST
Temp
°C
App
Temp
°C
Dew
Point
°C
Rel
Hum
%
Delta-T
°C
Wind Press
QNH
hPa
Press
MSL
hPa
Rain since
9am
mm
Dir  Spd
km/h
Gust
km/h
Spd
kts
Gust
kts
22/11:30pm 19.7 16.8 15.1 75 2.7 N 24 35 13 19 1014.2 1014.2 0.0
22/11:00pm 19.1 17.4 14.8 76 2.5 N 17 24 9 13 1014.3 1014.3 0.0
22/10:30pm 19.2 17.2 14.9 76 2.5 N 19 26 10 14 1014.7 1014.7 0.0
22/10:00pm 19.2 17.1 14.7 75 2.6 N 19 24 10 13 1014.8 1014.8 0.0
22/09:30pm 19.1 18.2 14.8 76 2.5 N 13 20 7 11 1014.9 1014.9 0.0
22/09:00pm 19.2 17.9 14.7 75 2.6 N 15 24 8 13 1014.6 1014.6 0.0
22/08:30pm 19.1 17.9 15.0 77 2.4 NNE 15 20 8 11 1014.3 1014.3 0.0
22/08:00pm 18.9 18.1 15.0 78 2.3 N 13 22 7 12 1014.7 1014.7 0.0
22/07:30pm 19.2 17.9 14.9 76 2.5 NNE 15 24 8 13 1014.4 1014.4 0.0
22/07:00pm 19.0 16.9 14.7 76 2.5 NNE 19 33 10 18 1014.0 1014.0 0.0
22/06:30pm 19.0 17.1 14.1 73 2.8 NNE 17 30 9 16 1013.8 1013.8 0.0
22/06:00pm 19.1 17.4 14.8 76 2.5 NNE 17 28 9 15 1014.0 1014.0 0.0

Other Formats:

Comma delimited format used in spreadsheet applications
http://www.bom.gov.au/fwo/IDN60801/IDN60801.94596.axf

JavaScript Object Notation format (JSON) in row-major order
http://www.bom.gov.au/fwo/IDN60801/IDN60801.94596.json